createdAt,value
2019-05-18T00:01:12.909Z,98496.70
2019-05-18T00:07:17.542Z,98502.31
2019-05-18T00:13:22.114Z,98499.13
2019-05-18T00:19:26.808Z,98498.50
2019-05-18T00:25:31.389Z,98491.40
2019-05-18T00:31:36.016Z,98503.24
2019-05-18T00:37:40.571Z,98501.60
2019-05-18T00:43:45.113Z,98493.39
2019-05-18T00:49:49.679Z,98487.31
2019-05-18T00:55:54.295Z,98487.05
2019-05-18T01:01:58.853Z,98489.01
2019-05-18T01:08:03.411Z,98486.34
2019-05-18T01:14:08.040Z,98481.52
2019-05-18T01:20:14.261Z,98474.84
2019-05-18T01:26:18.898Z,98474.41
2019-05-18T01:32:23.516Z,98475.13
2019-05-18T01:38:28.227Z,98471.00
2019-05-18T01:44:33.317Z,98464.55
2019-05-18T01:50:37.875Z,98463.94
2019-05-18T01:56:42.431Z,98461.67
2019-05-18T02:02:46.994Z,98465.99
2019-05-18T02:08:51.615Z,98464.94
2019-05-18T02:14:56.199Z,98460.83
2019-05-18T02:21:00.768Z,98464.53
2019-05-18T02:27:05.395Z,98473.02
2019-05-18T02:33:10.049Z,98478.59
2019-05-18T02:39:14.585Z,98481.16
2019-05-18T02:45:19.287Z,98478.88
2019-05-18T02:51:23.935Z,98478.51
2019-05-18T02:57:28.492Z,98476.91
2019-05-18T03:03:33.059Z,98466.49
2019-05-18T03:09:37.686Z,98468.04
2019-05-18T03:15:42.229Z,98472.91
2019-05-18T03:21:46.836Z,98473.16
2019-05-18T03:27:51.462Z,98468.98
2019-05-18T03:33:56.129Z,98462.45
2019-05-18T03:40:00.681Z,98472.73
2019-05-18T03:46:05.364Z,98470.28
2019-05-18T03:52:09.913Z,98471.31
2019-05-18T03:58:14.473Z,98462.95
2019-05-18T04:04:19.024Z,98448.41
2019-05-18T04:10:27.323Z,98461.54
2019-05-18T04:16:31.876Z,98456.81
2019-05-18T04:22:36.529Z,98457.65
2019-05-18T04:28:41.060Z,98466.08
2019-05-18T04:34:45.606Z,98473.78
2019-05-18T04:40:50.290Z,98479.00
2019-05-18T04:46:55.020Z,98477.28
2019-05-18T04:52:59.602Z,98475.95
2019-05-18T04:59:04.245Z,98475.05
2019-05-18T05:05:09.056Z,98468.75
2019-05-18T05:11:13.599Z,98471.42
2019-05-18T05:17:18.144Z,98470.39
2019-05-18T05:23:22.770Z,98466.36
2019-05-18T05:29:27.393Z,98463.73
2019-05-18T05:35:32.020Z,98467.48
2019-05-18T05:41:36.570Z,98470.46
2019-05-18T05:47:41.126Z,98461.66
2019-05-18T05:53:45.686Z,98467.86
2019-05-18T05:59:50.244Z,98468.19
2019-05-18T06:05:54.816Z,98463.55
2019-05-18T06:11:59.405Z,98472.27
2019-05-18T06:18:04.029Z,98474.05
2019-05-18T06:24:08.627Z,98483.42
2019-05-18T06:30:14.138Z,98486.25
2019-05-18T06:36:18.731Z,98479.89
2019-05-18T06:42:23.340Z,98480.14
2019-05-18T06:48:27.941Z,98482.18
2019-05-18T06:54:32.569Z,98478.55
2019-05-18T07:00:37.141Z,98482.75
2019-05-18T07:06:41.747Z,98479.59
2019-05-18T07:12:46.392Z,98476.91
2019-05-18T07:18:51.307Z,98472.31
2019-05-18T07:24:55.981Z,98471.77
2019-05-18T07:31:00.554Z,98469.22
2019-05-18T07:37:05.580Z,98466.45
2019-05-18T07:43:10.237Z,98457.78
2019-05-18T07:49:14.827Z,98452.50
2019-05-18T07:55:19.455Z,98457.00
2019-05-18T08:01:24.230Z,98450.95
2019-05-18T08:07:28.829Z,98450.70
2019-05-18T08:13:33.408Z,98454.48
2019-05-18T08:19:38.108Z,98458.53
2019-05-18T08:25:42.748Z,98450.69
2019-05-18T08:31:47.324Z,98446.87
2019-05-18T08:37:51.972Z,98446.66
2019-05-18T08:43:56.681Z,98448.66
2019-05-18T08:50:03.156Z,98442.98
2019-05-18T08:56:07.823Z,98429.73
2019-05-18T09:02:12.672Z,98437.42
2019-05-18T09:08:17.286Z,98444.39
2019-05-18T09:14:23.535Z,98438.48
2019-05-18T09:20:28.225Z,98444.88
2019-05-18T09:26:33.240Z,98446.22
2019-05-18T09:32:37.799Z,98448.17
2019-05-18T09:38:43.173Z,98449.07
2019-05-18T09:44:47.788Z,98446.26
2019-05-18T09:50:52.342Z,98435.77
2019-05-18T09:56:56.921Z,98436.97
2019-05-18T10:03:03.382Z,98437.59
2019-05-18T10:09:09.406Z,98434.09
2019-05-18T10:15:14.403Z,98426.00
2019-05-18T10:21:19.001Z,98420.92
2019-05-18T10:27:23.770Z,98410.91
2019-05-18T10:33:28.334Z,98409.95
2019-05-18T10:39:33.150Z,98407.95
2019-05-18T10:45:38.424Z,98403.56
2019-05-18T10:51:44.282Z,98400.67
2019-05-18T10:57:48.943Z,98398.66
2019-05-18T11:03:53.632Z,98393.41
2019-05-18T11:09:58.864Z,98388.73
2019-05-18T11:16:03.475Z,98388.98
2019-05-18T11:22:08.935Z,98385.80
2019-05-18T11:28:24.392Z,98382.34
2019-05-18T11:34:29.193Z,98376.94
2019-05-18T11:40:41.540Z,98380.58
2019-05-18T11:46:46.266Z,98376.13
2019-05-18T11:52:51.916Z,98379.70
2019-05-18T11:58:56.865Z,98371.54
2019-05-18T12:05:01.635Z,98366.19
2019-05-18T12:11:06.449Z,98359.40
2019-05-18T12:17:11.086Z,98356.84
2019-05-18T12:23:15.778Z,98359.80
2019-05-18T12:29:21.392Z,98352.86
2019-05-18T12:35:27.023Z,98354.23
2019-05-18T12:41:31.869Z,98359.11
2019-05-18T12:47:36.574Z,98358.27
2019-05-18T12:53:41.320Z,98354.52
2019-05-18T12:59:45.982Z,98344.17
2019-05-18T13:05:51.729Z,98344.42
2019-05-18T13:11:56.498Z,98343.49
2019-05-18T13:18:03.223Z,98343.23
2019-05-18T13:24:08.642Z,98344.00
2019-05-18T13:30:14.864Z,98340.97
2019-05-18T13:36:19.666Z,98331.98
2019-05-18T13:42:26.030Z,98329.41
2019-05-18T13:48:33.463Z,98324.42
2019-05-18T13:54:39.193Z,98330.12
2019-05-18T14:00:46.091Z,98327.92
2019-05-18T14:06:50.657Z,98317.17
2019-05-18T14:12:55.278Z,98324.86
2019-05-18T14:18:59.916Z,98326.59
2019-05-18T14:25:18.564Z,98317.45
2019-05-18T14:31:14.815Z,98314.45
2019-05-18T14:37:19.648Z,98307.33
2019-05-18T14:43:24.281Z,98302.96
2019-05-18T14:49:28.940Z,98298.11
2019-05-18T14:55:34.214Z,98301.03
2019-05-18T15:01:38.985Z,98310.69
2019-05-18T15:07:43.603Z,98304.84
2019-05-18T15:13:48.318Z,98302.00
2019-05-18T15:19:53.816Z,98306.73
2019-05-18T15:26:04.907Z,98298.86
2019-05-18T15:32:09.569Z,98301.52
2019-05-18T15:38:14.563Z,98298.20
2019-05-18T15:44:20.564Z,98298.23
2019-05-18T15:50:25.556Z,98294.20
2019-05-18T15:56:30.288Z,98292.06
2019-05-18T16:02:35.043Z,98294.28
2019-05-18T16:08:39.758Z,98295.66
2019-05-18T16:14:44.450Z,98298.03
2019-05-18T16:20:49.114Z,98293.70
2019-05-18T16:26:53.816Z,98289.78
2019-05-18T16:32:58.372Z,98300.84
2019-05-18T16:39:02.958Z,98295.36
2019-05-18T16:45:11.404Z,98288.09
2019-05-18T16:51:16.073Z,98296.47
2019-05-18T16:57:20.784Z,98295.47
2019-05-18T17:03:25.412Z,98298.45
2019-05-18T17:09:30.014Z,98296.53
2019-05-18T17:15:36.371Z,98296.20
2019-05-18T17:21:41.026Z,98296.84
2019-05-18T17:27:45.597Z,98300.20
2019-05-18T17:33:50.251Z,98302.13
2019-05-18T17:39:54.835Z,98301.09
2019-05-18T17:45:59.449Z,98304.77
2019-05-18T17:52:04.138Z,98298.03
2019-05-18T17:58:08.854Z,98305.55
2019-05-18T18:04:13.525Z,98308.70
2019-05-18T18:10:18.643Z,98312.36
2019-05-18T18:16:23.183Z,98305.62
2019-05-18T18:22:27.780Z,98314.11
2019-05-18T18:28:32.415Z,98315.52
2019-05-18T18:34:37.110Z,98318.72
2019-05-18T18:40:42.002Z,98317.45
2019-05-18T18:46:48.265Z,98312.05
2019-05-18T18:52:52.898Z,98329.52
2019-05-18T18:58:57.621Z,98328.58
2019-05-18T19:05:02.915Z,98336.63
2019-05-18T19:11:07.789Z,98340.85
2019-05-18T19:17:12.497Z,98355.09
2019-05-18T19:23:17.091Z,98361.66
2019-05-18T19:29:21.822Z,98367.88
2019-05-18T19:35:27.222Z,98373.52
2019-05-18T19:41:32.125Z,98375.30
2019-05-18T19:47:37.643Z,98377.47
2019-05-18T19:53:42.549Z,98379.88
2019-05-18T19:59:47.858Z,98388.33
2019-05-18T20:05:52.561Z,98376.91
2019-05-18T20:11:57.229Z,98383.72
2019-05-18T20:18:01.896Z,98380.98
2019-05-18T20:24:06.619Z,98380.45
2019-05-18T20:30:12.161Z,98378.31
2019-05-18T20:36:16.852Z,98377.59
2019-05-18T20:42:21.695Z,98379.02
2019-05-18T20:48:26.770Z,98388.28
2019-05-18T20:54:31.564Z,98390.03
2019-05-18T21:00:38.458Z,98392.27
2019-05-18T21:06:45.416Z,98393.41
2019-05-18T21:12:49.359Z,98387.73
2019-05-18T21:18:54.110Z,98387.95
2019-05-18T21:24:58.722Z,98395.48
2019-05-18T21:31:04.674Z,98399.34
2019-05-18T21:37:09.659Z,98406.20
2019-05-18T21:43:14.470Z,98406.13
2019-05-18T21:49:19.932Z,98405.84
2019-05-18T21:55:24.553Z,98410.17
2019-05-18T22:01:29.252Z,98404.37
2019-05-18T22:07:34.006Z,98403.70
2019-05-18T22:13:38.559Z,98408.25
2019-05-18T22:19:43.200Z,98416.78
2019-05-18T22:25:47.768Z,98410.86
2019-05-18T22:31:52.435Z,98410.86
2019-05-18T22:37:57.056Z,98403.17
2019-05-18T22:44:01.714Z,98401.55
2019-05-18T22:50:08.400Z,98404.68
2019-05-18T22:56:12.991Z,98396.99
2019-05-18T23:02:17.557Z,98387.72
2019-05-18T23:08:22.238Z,98386.30
2019-05-18T23:14:28.384Z,98390.48
2019-05-18T23:20:33.006Z,98388.00
2019-05-18T23:26:37.705Z,98386.23
2019-05-18T23:32:42.331Z,98383.91
2019-05-18T23:38:46.938Z,98379.05
2019-05-18T23:44:51.555Z,98363.98
2019-05-18T23:50:56.172Z,98364.61
2019-05-18T23:57:00.902Z,98367.61
